sensor_id;sensor_type;location;lat;lon;timestamp;temperature;humidity
64961;SHT31;51487;52.266;10.542;2023-07-13T00:00:35;19.71;74.19
64961;SHT31;51487;52.266;10.542;2023-07-13T00:03:02;19.67;74.43
64961;SHT31;51487;52.266;10.542;2023-07-13T00:05:28;19.67;74.66
64961;SHT31;51487;52.266;10.542;2023-07-13T00:07:54;19.55;75.02
64961;SHT31;51487;52.266;10.542;2023-07-13T00:10:20;19.50;75.33
64961;SHT31;51487;52.266;10.542;2023-07-13T00:12:47;19.47;75.36
64961;SHT31;51487;52.266;10.542;2023-07-13T00:15:21;19.46;75.46
64961;SHT31;51487;52.266;10.542;2023-07-13T00:17:55;19.41;75.41
64961;SHT31;51487;52.266;10.542;2023-07-13T00:20:24;19.43;75.36
64961;SHT31;51487;52.266;10.542;2023-07-13T00:22:53;19.43;75.49
64961;SHT31;51487;52.266;10.542;2023-07-13T00:25:21;19.37;75.59
64961;SHT31;51487;52.266;10.542;2023-07-13T00:27:48;19.46;75.37
64961;SHT31;51487;52.266;10.542;2023-07-13T00:30:14;19.28;75.70
64961;SHT31;51487;52.266;10.542;2023-07-13T00:32:40;19.19;75.93
64961;SHT31;51487;52.266;10.542;2023-07-13T00:35:07;19.15;76.00
64961;SHT31;51487;52.266;10.542;2023-07-13T00:37:33;19.24;75.87
64961;SHT31;51487;52.266;10.542;2023-07-13T00:40:04;19.19;75.82
64961;SHT31;51487;52.266;10.542;2023-07-13T00:42:31;18.99;76.30
64961;SHT31;51487;52.266;10.542;2023-07-13T00:47:33;19.00;76.51
64961;SHT31;51487;52.266;10.542;2023-07-13T00:49:59;19.00;76.45
64961;SHT31;51487;52.266;10.542;2023-07-13T00:52:26;18.94;76.68
64961;SHT31;51487;52.266;10.542;2023-07-13T00:54:54;18.89;76.86
64961;SHT31;51487;52.266;10.542;2023-07-13T00:57:21;18.89;76.99
64961;SHT31;51487;52.266;10.542;2023-07-13T00:59:52;18.92;76.96
64961;SHT31;51487;52.266;10.542;2023-07-13T01:02:19;18.88;76.89
64961;SHT31;51487;52.266;10.542;2023-07-13T01:04:47;18.96;76.75
64961;SHT31;51487;52.266;10.542;2023-07-13T01:07:13;18.88;76.97
64961;SHT31;51487;52.266;10.542;2023-07-13T01:09:39;18.79;77.10
64961;SHT31;51487;52.266;10.542;2023-07-13T01:12:05;18.89;77.05
64961;SHT31;51487;52.266;10.542;2023-07-13T01:14:31;18.85;77.05
64961;SHT31;51487;52.266;10.542;2023-07-13T01:16:57;18.86;76.86
64961;SHT31;51487;52.266;10.542;2023-07-13T01:19:40;18.88;77.01
64961;SHT31;51487;52.266;10.542;2023-07-13T01:22:13;18.89;76.88
64961;SHT31;51487;52.266;10.542;2023-07-13T01:24:42;18.89;76.94
64961;SHT31;51487;52.266;10.542;2023-07-13T01:27:11;19.00;76.74
64961;SHT31;51487;52.266;10.542;2023-07-13T01:29:39;18.92;76.80
64961;SHT31;51487;52.266;10.542;2023-07-13T01:32:13;18.85;76.98
64961;SHT31;51487;52.266;10.542;2023-07-13T01:34:39;18.95;76.93
64961;SHT31;51487;52.266;10.542;2023-07-13T01:37:12;18.95;77.03
64961;SHT31;51487;52.266;10.542;2023-07-13T01:39:38;18.78;77.20
64961;SHT31;51487;52.266;10.542;2023-07-13T01:42:04;18.75;77.25
64961;SHT31;51487;52.266;10.542;2023-07-13T01:44:29;18.76;77.30
64961;SHT31;51487;52.266;10.542;2023-07-13T01:46:56;18.71;77.50
64961;SHT31;51487;52.266;10.542;2023-07-13T01:49:22;18.61;77.77
64961;SHT31;51487;52.266;10.542;2023-07-13T01:51:47;18.61;77.80
64961;SHT31;51487;52.266;10.542;2023-07-13T01:54:13;18.54;78.07
64961;SHT31;51487;52.266;10.542;2023-07-13T01:56:38;18.62;78.08
64961;SHT31;51487;52.266;10.542;2023-07-13T01:59:05;18.52;78.20
64961;SHT31;51487;52.266;10.542;2023-07-13T02:01:30;18.49;78.48
64961;SHT31;51487;52.266;10.542;2023-07-13T02:03:56;18.44;78.35
64961;SHT31;51487;52.266;10.542;2023-07-13T02:06:21;18.41;78.76
64961;SHT31;51487;52.266;10.542;2023-07-13T02:08:47;18.40;78.94
64961;SHT31;51487;52.266;10.542;2023-07-13T02:11:13;18.37;78.97
64961;SHT31;51487;52.266;10.542;2023-07-13T02:13:38;18.33;79.11
64961;SHT31;51487;52.266;10.542;2023-07-13T02:16:04;18.31;79.37
64961;SHT31;51487;52.266;10.542;2023-07-13T02:18:29;18.30;79.35
64961;SHT31;51487;52.266;10.542;2023-07-13T02:20:55;18.30;79.41
64961;SHT31;51487;52.266;10.542;2023-07-13T02:23:21;18.17;79.58
64961;SHT31;51487;52.266;10.542;2023-07-13T02:25:46;18.11;79.73
64961;SHT31;51487;52.266;10.542;2023-07-13T02:28:12;18.04;80.04
64961;SHT31;51487;52.266;10.542;2023-07-13T02:30:37;17.99;80.20
64961;SHT31;51487;52.266;10.542;2023-07-13T02:33:04;18.01;80.24
64961;SHT31;51487;52.266;10.542;2023-07-13T02:35:30;18.00;80.17
64961;SHT31;51487;52.266;10.542;2023-07-13T02:37:56;17.97;80.25
64961;SHT31;51487;52.266;10.542;2023-07-13T02:40:22;17.99;80.26
64961;SHT31;51487;52.266;10.542;2023-07-13T02:42:48;18.07;80.07
64961;SHT31;51487;52.266;10.542;2023-07-13T02:45:13;18.07;80.04
64961;SHT31;51487;52.266;10.542;2023-07-13T02:47:41;18.13;79.90
64961;SHT31;51487;52.266;10.542;2023-07-13T02:50:07;18.30;79.50
64961;SHT31;51487;52.266;10.542;2023-07-13T02:52:33;18.30;79.28
64961;SHT31;51487;52.266;10.542;2023-07-13T02:54:59;18.26;79.18
64961;SHT31;51487;52.266;10.542;2023-07-13T02:57:25;18.24;79.29
64961;SHT31;51487;52.266;10.542;2023-07-13T02:59:50;18.21;79.35
64961;SHT31;51487;52.266;10.542;2023-07-13T03:02:16;18.18;79.55
64961;SHT31;51487;52.266;10.542;2023-07-13T03:04:41;18.10;79.91
64961;SHT31;51487;52.266;10.542;2023-07-13T03:07:07;18.16;79.80
64961;SHT31;51487;52.266;10.542;2023-07-13T03:09:34;18.17;79.90
64961;SHT31;51487;52.266;10.542;2023-07-13T03:12:00;18.13;79.90
64961;SHT31;51487;52.266;10.542;2023-07-13T03:14:26;18.10;80.13
64961;SHT31;51487;52.266;10.542;2023-07-13T03:16:52;18.11;80.17
64961;SHT31;51487;52.266;10.542;2023-07-13T03:19:18;18.04;80.26
64961;SHT31;51487;52.266;10.542;2023-07-13T03:21:45;17.94;80.40
64961;SHT31;51487;52.266;10.542;2023-07-13T03:24:10;17.89;80.38
64961;SHT31;51487;52.266;10.542;2023-07-13T03:26:36;17.85;80.33
64961;SHT31;51487;52.266;10.542;2023-07-13T03:29:02;17.87;79.94
64961;SHT31;51487;52.266;10.542;2023-07-13T03:31:34;17.93;79.97
64961;SHT31;51487;52.266;10.542;2023-07-13T03:33:59;17.90;79.99
64961;SHT31;51487;52.266;10.542;2023-07-13T03:36:28;17.91;80.07
64961;SHT31;51487;52.266;10.542;2023-07-13T03:38:58;17.90;79.70
64961;SHT31;51487;52.266;10.542;2023-07-13T03:41:25;17.94;79.43
64961;SHT31;51487;52.266;10.542;2023-07-13T03:43:51;17.91;79.68
64961;SHT31;51487;52.266;10.542;2023-07-13T03:46:17;17.90;79.58
64961;SHT31;51487;52.266;10.542;2023-07-13T03:48:46;18.00;79.33
64961;SHT31;51487;52.266;10.542;2023-07-13T03:51:14;18.03;79.12
64961;SHT31;51487;52.266;10.542;2023-07-13T03:53:44;18.03;79.18
64961;SHT31;51487;52.266;10.542;2023-07-13T03:56:11;18.01;79.29
64961;SHT31;51487;52.266;10.542;2023-07-13T03:58:41;17.97;79.29
64961;SHT31;51487;52.266;10.542;2023-07-13T04:01:09;17.89;79.58
64961;SHT31;51487;52.266;10.542;2023-07-13T04:03:35;17.93;79.64
64961;SHT31;51487;52.266;10.542;2023-07-13T04:06:05;18.01;79.39
64961;SHT31;51487;52.266;10.542;2023-07-13T04:08:35;17.94;79.41
64961;SHT31;51487;52.266;10.542;2023-07-13T04:11:03;17.93;79.33
64961;SHT31;51487;52.266;10.542;2023-07-13T04:13:29;17.96;79.66
64961;SHT31;51487;52.266;10.542;2023-07-13T04:15:55;18.01;79.18
64961;SHT31;51487;52.266;10.542;2023-07-13T04:18:21;18.00;79.38
64961;SHT31;51487;52.266;10.542;2023-07-13T04:20:48;18.06;79.22
64961;SHT31;51487;52.266;10.542;2023-07-13T04:23:15;18.11;78.94
64961;SHT31;51487;52.266;10.542;2023-07-13T04:25:48;18.11;78.98
64961;SHT31;51487;52.266;10.542;2023-07-13T04:28:16;18.14;78.86
64961;SHT31;51487;52.266;10.542;2023-07-13T04:30:43;18.21;78.60
64961;SHT31;51487;52.266;10.542;2023-07-13T04:33:09;18.21;78.42
64961;SHT31;51487;52.266;10.542;2023-07-13T04:35:35;18.21;78.60
64961;SHT31;51487;52.266;10.542;2023-07-13T04:38:01;18.30;77.98
64961;SHT31;51487;52.266;10.542;2023-07-13T04:40:28;18.37;78.11
64961;SHT31;51487;52.266;10.542;2023-07-13T04:42:55;18.40;77.81
64961;SHT31;51487;52.266;10.542;2023-07-13T04:45:22;18.37;77.70
64961;SHT31;51487;52.266;10.542;2023-07-13T04:47:49;18.40;77.88
64961;SHT31;51487;52.266;10.542;2023-07-13T04:50:15;18.38;77.56
64961;SHT31;51487;52.266;10.542;2023-07-13T04:52:45;18.49;77.07
64961;SHT31;51487;52.266;10.542;2023-07-13T04:55:11;18.69;76.86
64961;SHT31;51487;52.266;10.542;2023-07-13T04:57:36;18.82;76.49
64961;SHT31;51487;52.266;10.542;2023-07-13T05:00:04;18.81;76.37
64961;SHT31;51487;52.266;10.542;2023-07-13T05:02:31;18.86;75.83
64961;SHT31;51487;52.266;10.542;2023-07-13T05:04:58;19.00;75.96
64961;SHT31;51487;52.266;10.542;2023-07-13T05:07:23;19.12;75.59
64961;SHT31;51487;52.266;10.542;2023-07-13T05:09:49;19.20;74.93
64961;SHT31;51487;52.266;10.542;2023-07-13T05:12:14;19.26;74.60
64961;SHT31;51487;52.266;10.542;2023-07-13T05:14:40;19.17;74.33
64961;SHT31;51487;52.266;10.542;2023-07-13T05:17:05;19.17;74.88
64961;SHT31;51487;52.266;10.542;2023-07-13T05:19:31;19.16;74.69
64961;SHT31;51487;52.266;10.542;2023-07-13T05:21:57;19.16;75.09
64961;SHT31;51487;52.266;10.542;2023-07-13T05:24:24;19.17;75.08
64961;SHT31;51487;52.266;10.542;2023-07-13T05:26:49;19.15;74.76
64961;SHT31;51487;52.266;10.542;2023-07-13T05:29:15;18.98;75.17
64961;SHT31;51487;52.266;10.542;2023-07-13T05:31:40;18.98;75.68
64961;SHT31;51487;52.266;10.542;2023-07-13T05:34:06;19.12;75.61
64961;SHT31;51487;52.266;10.542;2023-07-13T05:36:31;19.17;75.50
64961;SHT31;51487;52.266;10.542;2023-07-13T05:38:57;19.34;74.78
64961;SHT31;51487;52.266;10.542;2023-07-13T05:41:23;19.57;74.17
64961;SHT31;51487;52.266;10.542;2023-07-13T05:43:49;19.64;73.90
64961;SHT31;51487;52.266;10.542;2023-07-13T05:46:14;19.67;73.24
64961;SHT31;51487;52.266;10.542;2023-07-13T05:48:41;19.79;73.03
64961;SHT31;51487;52.266;10.542;2023-07-13T05:51:06;19.65;73.22
64961;SHT31;51487;52.266;10.542;2023-07-13T05:53:32;19.79;72.82
64961;SHT31;51487;52.266;10.542;2023-07-13T05:55:57;19.86;72.71
64961;SHT31;51487;52.266;10.542;2023-07-13T05:58:23;19.99;72.42
64961;SHT31;51487;52.266;10.542;2023-07-13T06:00:48;20.05;71.00
64961;SHT31;51487;52.266;10.542;2023-07-13T06:03:23;20.23;70.83
64961;SHT31;51487;52.266;10.542;2023-07-13T06:05:48;20.32;69.79
64961;SHT31;51487;52.266;10.542;2023-07-13T06:08:14;20.28;70.00
64961;SHT31;51487;52.266;10.542;2023-07-13T06:10:39;20.46;69.87
64961;SHT31;51487;52.266;10.542;2023-07-13T06:13:05;20.46;69.23
64961;SHT31;51487;52.266;10.542;2023-07-13T06:15:30;20.53;69.31
64961;SHT31;51487;52.266;10.542;2023-07-13T06:17:56;20.40;69.23
64961;SHT31;51487;52.266;10.542;2023-07-13T06:20:21;20.39;69.66
64961;SHT31;51487;52.266;10.542;2023-07-13T06:22:47;20.23;70.15
64961;SHT31;51487;52.266;10.542;2023-07-13T06:25:12;20.06;70.32
64961;SHT31;51487;52.266;10.542;2023-07-13T06:27:38;20.05;71.17
64961;SHT31;51487;52.266;10.542;2023-07-13T06:30:04;19.99;71.06
64961;SHT31;51487;52.266;10.542;2023-07-13T06:32:29;20.09;70.53
64961;SHT31;51487;52.266;10.542;2023-07-13T06:34:55;19.94;70.75
64961;SHT31;51487;52.266;10.542;2023-07-13T06:37:20;19.88;71.00
64961;SHT31;51487;52.266;10.542;2023-07-13T06:39:46;20.74;78.95
64961;SHT31;51487;52.266;10.542;2023-07-13T06:42:11;21.42;74.18
64961;SHT31;51487;52.266;10.542;2023-07-13T06:44:37;22.06;72.23
64961;SHT31;51487;52.266;10.542;2023-07-13T06:47:03;22.43;70.79
64961;SHT31;51487;52.266;10.542;2023-07-13T06:49:28;22.62;72.00
64961;SHT31;51487;52.266;10.542;2023-07-13T06:51:54;23.07;69.99
64961;SHT31;51487;52.266;10.542;2023-07-13T06:54:20;23.28;68.24
64961;SHT31;51487;52.266;10.542;2023-07-13T06:56:45;23.17;66.31
64961;SHT31;51487;52.266;10.542;2023-07-13T06:59:11;23.37;69.90
64961;SHT31;51487;52.266;10.542;2023-07-13T07:01:36;23.54;66.54
64961;SHT31;51487;52.266;10.542;2023-07-13T07:04:03;23.39;66.64
64961;SHT31;51487;52.266;10.542;2023-07-13T07:06:29;23.84;65.81
64961;SHT31;51487;52.266;10.542;2023-07-13T07:08:54;23.73;66.99
64961;SHT31;51487;52.266;10.542;2023-07-13T07:11:24;23.58;65.14
64961;SHT31;51487;52.266;10.542;2023-07-13T07:13:52;23.39;62.87
64961;SHT31;51487;52.266;10.542;2023-07-13T07:16:19;22.51;63.81
64961;SHT31;51487;52.266;10.542;2023-07-13T07:18:45;22.06;65.04
64961;SHT31;51487;52.266;10.542;2023-07-13T07:21:12;21.75;65.66
64961;SHT31;51487;52.266;10.542;2023-07-13T07:23:37;21.39;66.55
64961;SHT31;51487;52.266;10.542;2023-07-13T07:26:03;21.15;67.46
64961;SHT31;51487;52.266;10.542;2023-07-13T07:28:29;20.98;66.86
64961;SHT31;51487;52.266;10.542;2023-07-13T07:30:57;20.76;67.02
64961;SHT31;51487;52.266;10.542;2023-07-13T07:33:25;20.91;67.43
64961;SHT31;51487;52.266;10.542;2023-07-13T07:35:51;20.98;67.43
64961;SHT31;51487;52.266;10.542;2023-07-13T07:38:19;21.21;66.73
64961;SHT31;51487;52.266;10.542;2023-07-13T07:40:45;21.22;65.82
64961;SHT31;51487;52.266;10.542;2023-07-13T07:43:12;21.22;66.55
64961;SHT31;51487;52.266;10.542;2023-07-13T07:45:39;21.25;66.96
64961;SHT31;51487;52.266;10.542;2023-07-13T07:48:06;21.45;66.19
64961;SHT31;51487;52.266;10.542;2023-07-13T07:50:32;21.75;64.83
64961;SHT31;51487;52.266;10.542;2023-07-13T07:52:57;21.85;65.05
64961;SHT31;51487;52.266;10.542;2023-07-13T07:55:24;21.87;64.23
64961;SHT31;51487;52.266;10.542;2023-07-13T07:57:53;21.83;62.92
64961;SHT31;51487;52.266;10.542;2023-07-13T08:00:19;21.93;62.66
64961;SHT31;51487;52.266;10.542;2023-07-13T08:02:45;21.99;63.14
64961;SHT31;51487;52.266;10.542;2023-07-13T08:05:11;21.75;63.08
64961;SHT31;51487;52.266;10.542;2023-07-13T08:07:38;21.67;62.96
64961;SHT31;51487;52.266;10.542;2023-07-13T08:10:06;21.46;63.36
64961;SHT31;51487;52.266;10.542;2023-07-13T08:12:37;21.37;62.90
64961;SHT31;51487;52.266;10.542;2023-07-13T08:15:03;21.39;62.93
64961;SHT31;51487;52.266;10.542;2023-07-13T08:17:29;21.32;62.95
64961;SHT31;51487;52.266;10.542;2023-07-13T08:19:55;21.37;62.68
64961;SHT31;51487;52.266;10.542;2023-07-13T08:22:20;21.12;63.73
64961;SHT31;51487;52.266;10.542;2023-07-13T08:24:46;21.07;63.24
64961;SHT31;51487;52.266;10.542;2023-07-13T08:27:13;21.79;69.86
64961;SHT31;51487;52.266;10.542;2023-07-13T08:29:39;21.96;65.33
64961;SHT31;51487;52.266;10.542;2023-07-13T08:32:07;22.22;65.00
64961;SHT31;51487;52.266;10.542;2023-07-13T08:34:36;22.58;64.34
64961;SHT31;51487;52.266;10.542;2023-07-13T08:37:02;21.78;62.21
64961;SHT31;51487;52.266;10.542;2023-07-13T08:39:30;22.01;62.37
64961;SHT31;51487;52.266;10.542;2023-07-13T08:42:04;22.17;61.90
64961;SHT31;51487;52.266;10.542;2023-07-13T08:47:30;22.45;59.82
64961;SHT31;51487;52.266;10.542;2023-07-13T08:49:56;22.34;61.29
64961;SHT31;51487;52.266;10.542;2023-07-13T08:52:36;22.41;60.30
64961;SHT31;51487;52.266;10.542;2023-07-13T08:55:15;22.55;60.28
64961;SHT31;51487;52.266;10.542;2023-07-13T08:57:44;22.72;60.23
64961;SHT31;51487;52.266;10.542;2023-07-13T09:00:12;22.76;60.64
64961;SHT31;51487;52.266;10.542;2023-07-13T09:05:30;22.36;60.44
64961;SHT31;51487;52.266;10.542;2023-07-13T09:08:33;22.38;60.81
64961;SHT31;51487;52.266;10.542;2023-07-13T09:11:23;22.24;60.07
64961;SHT31;51487;52.266;10.542;2023-07-13T09:16:43;21.79;61.30
64961;SHT31;51487;52.266;10.542;2023-07-13T09:19:28;21.72;61.89
64961;SHT31;51487;52.266;10.542;2023-07-13T09:21:56;21.87;62.22
64961;SHT31;51487;52.266;10.542;2023-07-13T09:24:57;21.83;61.78
64961;SHT31;51487;52.266;10.542;2023-07-13T09:27:35;21.62;62.20
64961;SHT31;51487;52.266;10.542;2023-07-13T09:32:47;21.50;63.05
64961;SHT31;51487;52.266;10.542;2023-07-13T09:35:21;21.66;62.93
64961;SHT31;51487;52.266;10.542;2023-07-13T09:37:47;21.85;63.21
64961;SHT31;51487;52.266;10.542;2023-07-13T09:40:44;22.01;61.40
64961;SHT31;51487;52.266;10.542;2023-07-13T09:43:15;21.94;61.53
64961;SHT31;51487;52.266;10.542;2023-07-13T09:45:46;21.86;62.18
64961;SHT31;51487;52.266;10.542;2023-07-13T09:48:14;21.94;62.21
64961;SHT31;51487;52.266;10.542;2023-07-13T09:50:42;21.94;62.02
64961;SHT31;51487;52.266;10.542;2023-07-13T09:53:18;21.87;62.25
64961;SHT31;51487;52.266;10.542;2023-07-13T09:55:47;22.13;62.48
64961;SHT31;51487;52.266;10.542;2023-07-13T09:58:23;22.13;62.07
64961;SHT31;51487;52.266;10.542;2023-07-13T10:00:59;21.93;61.38
64961;SHT31;51487;52.266;10.542;2023-07-13T10:03:34;22.07;62.47
64961;SHT31;51487;52.266;10.542;2023-07-13T10:06:17;22.11;63.07
64961;SHT31;51487;52.266;10.542;2023-07-13T10:08:46;22.16;62.32
64961;SHT31;51487;52.266;10.542;2023-07-13T10:13:56;22.54;61.17
64961;SHT31;51487;52.266;10.542;2023-07-13T10:16:29;22.86;61.06
64961;SHT31;51487;52.266;10.542;2023-07-13T10:19:03;23.00;60.18
64961;SHT31;51487;52.266;10.542;2023-07-13T10:21:46;22.82;59.80
64961;SHT31;51487;52.266;10.542;2023-07-13T10:24:19;22.68;60.81
64961;SHT31;51487;52.266;10.542;2023-07-13T10:27:01;22.31;61.63
64961;SHT31;51487;52.266;10.542;2023-07-13T10:29:36;22.34;61.66
64961;SHT31;51487;52.266;10.542;2023-07-13T10:32:11;22.31;61.81
64961;SHT31;51487;52.266;10.542;2023-07-13T10:34:38;22.41;61.81
64961;SHT31;51487;52.266;10.542;2023-07-13T10:37:16;22.41;61.63
64961;SHT31;51487;52.266;10.542;2023-07-13T10:39:44;22.41;61.73
64961;SHT31;51487;52.266;10.542;2023-07-13T10:42:20;22.28;62.19
64961;SHT31;51487;52.266;10.542;2023-07-13T10:44:49;22.38;62.01
64961;SHT31;51487;52.266;10.542;2023-07-13T10:47:16;22.47;61.64
64961;SHT31;51487;52.266;10.542;2023-07-13T10:49:49;22.59;61.04
64961;SHT31;51487;52.266;10.542;2023-07-13T10:52:55;22.94;60.66
64961;SHT31;51487;52.266;10.542;2023-07-13T10:58:40;23.27;60.43
64961;SHT31;51487;52.266;10.542;2023-07-13T11:04:00;23.44;59.03
64961;SHT31;51487;52.266;10.542;2023-07-13T11:08:58;23.53;58.45
64961;SHT31;51487;52.266;10.542;2023-07-13T11:18:45;23.71;58.14
64961;SHT31;51487;52.266;10.542;2023-07-13T11:21:26;23.64;58.99
64961;SHT31;51487;52.266;10.542;2023-07-13T11:24:01;23.61;58.23
64961;SHT31;51487;52.266;10.542;2023-07-13T11:26:51;23.57;59.31
64961;SHT31;51487;52.266;10.542;2023-07-13T11:31:51;23.71;58.13
64961;SHT31;51487;52.266;10.542;2023-07-13T11:34:27;23.65;57.77
64961;SHT31;51487;52.266;10.542;2023-07-13T11:36:55;23.64;58.29
64961;SHT31;51487;52.266;10.542;2023-07-13T11:39:39;23.82;58.22
64961;SHT31;51487;52.266;10.542;2023-07-13T11:42:13;23.92;58.23
64961;SHT31;51487;52.266;10.542;2023-07-13T11:44:50;23.67;58.13
64961;SHT31;51487;52.266;10.542;2023-07-13T11:47:22;23.63;57.85
64961;SHT31;51487;52.266;10.542;2023-07-13T11:49:54;23.54;57.94
64961;SHT31;51487;52.266;10.542;2023-07-13T11:52:36;23.63;58.76
64961;SHT31;51487;52.266;10.542;2023-07-13T11:55:13;23.64;57.16
64961;SHT31;51487;52.266;10.542;2023-07-13T11:57:49;23.65;57.89
64961;SHT31;51487;52.266;10.542;2023-07-13T12:00:25;23.77;58.54
64961;SHT31;51487;52.266;10.542;2023-07-13T12:02:57;23.68;57.25
64961;SHT31;51487;52.266;10.542;2023-07-13T12:05:24;23.73;57.48
64961;SHT31;51487;52.266;10.542;2023-07-13T12:07:51;23.75;57.48
64961;SHT31;51487;52.266;10.542;2023-07-13T12:10:27;23.97;57.69
64961;SHT31;51487;52.266;10.542;2023-07-13T12:13:05;24.06;56.52
64961;SHT31;51487;52.266;10.542;2023-07-13T12:15:44;23.98;59.81
64961;SHT31;51487;52.266;10.542;2023-07-13T12:18:20;23.84;56.39
64961;SHT31;51487;52.266;10.542;2023-07-13T12:20:49;24.02;58.02
64961;SHT31;51487;52.266;10.542;2023-07-13T12:23:31;24.16;56.34
64961;SHT31;51487;52.266;10.542;2023-07-13T12:26:01;24.32;55.95
64961;SHT31;51487;52.266;10.542;2023-07-13T12:28:36;24.53;54.59
64961;SHT31;51487;52.266;10.542;2023-07-13T12:31:06;24.66;54.75
64961;SHT31;51487;52.266;10.542;2023-07-13T12:33:34;24.70;54.49
64961;SHT31;51487;52.266;10.542;2023-07-13T12:36:06;24.64;54.65
64961;SHT31;51487;52.266;10.542;2023-07-13T12:38:32;24.74;55.56
64961;SHT31;51487;52.266;10.542;2023-07-13T12:40:58;24.81;54.13
64961;SHT31;51487;52.266;10.542;2023-07-13T12:43:25;24.52;52.53
64961;SHT31;51487;52.266;10.542;2023-07-13T12:46:02;24.43;54.49
64961;SHT31;51487;52.266;10.542;2023-07-13T12:48:28;24.37;53.73
64961;SHT31;51487;52.266;10.542;2023-07-13T12:50:56;24.33;54.71
64961;SHT31;51487;52.266;10.542;2023-07-13T12:53:39;24.40;53.99
64961;SHT31;51487;52.266;10.542;2023-07-13T12:56:05;24.50;53.34
64961;SHT31;51487;52.266;10.542;2023-07-13T12:58:41;24.52;53.51
64961;SHT31;51487;52.266;10.542;2023-07-13T13:01:11;24.46;52.71
64961;SHT31;51487;52.266;10.542;2023-07-13T13:03:48;24.33;53.80
64961;SHT31;51487;52.266;10.542;2023-07-13T13:08:40;24.13;53.96
64961;SHT31;51487;52.266;10.542;2023-07-13T13:11:08;24.48;53.71
64961;SHT31;51487;52.266;10.542;2023-07-13T13:13:35;24.42;53.95
64961;SHT31;51487;52.266;10.542;2023-07-13T13:18:45;24.15;54.14
64961;SHT31;51487;52.266;10.542;2023-07-13T13:21:11;24.15;54.93
64961;SHT31;51487;52.266;10.542;2023-07-13T13:23:37;24.28;54.71
64961;SHT31;51487;52.266;10.542;2023-07-13T13:26:08;24.32;54.48
64961;SHT31;51487;52.266;10.542;2023-07-13T13:28:34;24.26;54.47
64961;SHT31;51487;52.266;10.542;2023-07-13T13:31:00;24.39;55.28
64961;SHT31;51487;52.266;10.542;2023-07-13T13:33:25;24.49;55.17
64961;SHT31;51487;52.266;10.542;2023-07-13T13:35:51;24.50;54.95
64961;SHT31;51487;52.266;10.542;2023-07-13T13:38:26;24.44;54.60
64961;SHT31;51487;52.266;10.542;2023-07-13T13:40:52;24.59;54.32
64961;SHT31;51487;52.266;10.542;2023-07-13T13:43:22;24.57;53.70
64961;SHT31;51487;52.266;10.542;2023-07-13T13:45:53;24.62;53.21
64961;SHT31;51487;52.266;10.542;2023-07-13T13:48:29;24.69;53.64
64961;SHT31;51487;52.266;10.542;2023-07-13T13:50:57;24.42;53.59
64961;SHT31;51487;52.266;10.542;2023-07-13T13:53:23;24.46;54.07
64961;SHT31;51487;52.266;10.542;2023-07-13T13:55:52;24.60;54.61
64961;SHT31;51487;52.266;10.542;2023-07-13T13:58:19;24.52;53.02
64961;SHT31;51487;52.266;10.542;2023-07-13T14:00:45;24.67;53.94
64961;SHT31;51487;52.266;10.542;2023-07-13T14:03:18;24.84;53.20
64961;SHT31;51487;52.266;10.542;2023-07-13T14:05:45;24.74;54.09
64961;SHT31;51487;52.266;10.542;2023-07-13T14:08:20;24.72;54.27
64961;SHT31;51487;52.266;10.542;2023-07-13T14:10:51;24.52;54.00
64961;SHT31;51487;52.266;10.542;2023-07-13T14:13:36;24.33;54.20
64961;SHT31;51487;52.266;10.542;2023-07-13T14:16:04;24.25;54.42
64961;SHT31;51487;52.266;10.542;2023-07-13T14:18:30;24.04;54.95
64961;SHT31;51487;52.266;10.542;2023-07-13T14:20:56;23.82;56.19
64961;SHT31;51487;52.266;10.542;2023-07-13T14:23:21;23.40;56.10
64961;SHT31;51487;52.266;10.542;2023-07-13T14:25:47;22.33;61.01
64961;SHT31;51487;52.266;10.542;2023-07-13T14:28:23;21.73;63.73
64961;SHT31;51487;52.266;10.542;2023-07-13T14:30:51;21.18;67.23
64961;SHT31;51487;52.266;10.542;2023-07-13T14:33:17;20.57;70.06
64961;SHT31;51487;52.266;10.542;2023-07-13T14:35:42;20.13;72.05
64961;SHT31;51487;52.266;10.542;2023-07-13T14:38:16;20.02;72.56
64961;SHT31;51487;52.266;10.542;2023-07-13T14:40:43;19.99;73.30
64961;SHT31;51487;52.266;10.542;2023-07-13T14:43:14;20.05;72.74
64961;SHT31;51487;52.266;10.542;2023-07-13T14:45:49;19.74;73.56
64961;SHT31;51487;52.266;10.542;2023-07-13T14:48:23;19.61;74.56
64961;SHT31;51487;52.266;10.542;2023-07-13T14:50:57;19.71;74.29
64961;SHT31;51487;52.266;10.542;2023-07-13T14:53:26;20.15;72.43
64961;SHT31;51487;52.266;10.542;2023-07-13T14:55:53;20.16;73.33
64961;SHT31;51487;52.266;10.542;2023-07-13T14:58:19;20.23;73.11
64961;SHT31;51487;52.266;10.542;2023-07-13T15:00:45;19.63;74.85
64961;SHT31;51487;52.266;10.542;2023-07-13T15:03:24;19.19;75.75
64961;SHT31;51487;52.266;10.542;2023-07-13T15:05:51;18.61;78.05
64961;SHT31;51487;52.266;10.542;2023-07-13T15:08:18;18.64;78.05
64961;SHT31;51487;52.266;10.542;2023-07-13T15:10:44;18.57;78.57
64961;SHT31;51487;52.266;10.542;2023-07-13T15:13:18;18.33;79.35
64961;SHT31;51487;52.266;10.542;2023-07-13T15:15:48;18.33;80.39
64961;SHT31;51487;52.266;10.542;2023-07-13T15:18:17;18.26;82.99
64961;SHT31;51487;52.266;10.542;2023-07-13T15:20:45;18.20;84.00
64961;SHT31;51487;52.266;10.542;2023-07-13T15:23:13;18.11;85.35
64961;SHT31;51487;52.266;10.542;2023-07-13T15:25:40;18.08;83.90
64961;SHT31;51487;52.266;10.542;2023-07-13T15:28:06;18.26;83.82
64961;SHT31;51487;52.266;10.542;2023-07-13T15:30:44;18.33;84.73
64961;SHT31;51487;52.266;10.542;2023-07-13T15:33:29;18.08;84.56
64961;SHT31;51487;52.266;10.542;2023-07-13T15:35:56;18.10;84.91
64961;SHT31;51487;52.266;10.542;2023-07-13T15:38:28;18.57;81.67
64961;SHT31;51487;52.266;10.542;2023-07-13T15:40:55;18.75;80.73
64961;SHT31;51487;52.266;10.542;2023-07-13T15:43:22;18.86;79.85
64961;SHT31;51487;52.266;10.542;2023-07-13T15:45:48;19.24;80.00
64961;SHT31;51487;52.266;10.542;2023-07-13T15:48:23;18.95;78.65
64961;SHT31;51487;52.266;10.542;2023-07-13T15:50:55;18.86;78.76
64961;SHT31;51487;52.266;10.542;2023-07-13T15:53:31;18.62;78.28
64961;SHT31;51487;52.266;10.542;2023-07-13T15:55:58;18.73;78.95
64961;SHT31;51487;52.266;10.542;2023-07-13T15:58:26;18.89;77.78
64961;SHT31;51487;52.266;10.542;2023-07-13T16:00:53;18.66;79.50
64961;SHT31;51487;52.266;10.542;2023-07-13T16:03:21;18.55;79.50
64961;SHT31;51487;52.266;10.542;2023-07-13T16:05:47;18.62;79.38